sensor_id;sensor_type;location;lat;lon;timestamp;P1;durP1;ratioP1;P2;durP2;ratioP2
6251;SDS011;3159;52.414;9.784;2023-12-14T00:00:39;5.20;;;4.10;;
6251;SDS011;3159;52.414;9.784;2023-12-14T00:03:06;5.77;;;4.37;;
6251;SDS011;3159;52.414;9.784;2023-12-14T00:05:33;4.97;;;4.47;;
6251;SDS011;3159;52.414;9.784;2023-12-14T00:08:01;5.40;;;4.20;;
6251;SDS011;3159;52.414;9.784;2023-12-14T00:10:28;5.50;;;4.23;;
6251;SDS011;3159;52.414;9.784;2023-12-14T00:12:55;5.30;;;4.40;;
6251;SDS011;3159;52.414;9.784;2023-12-14T00:15:22;4.40;;;3.73;;
6251;SDS011;3159;52.414;9.784;2023-12-14T00:17:49;4.50;;;3.90;;
6251;SDS011;3159;52.414;9.784;2023-12-14T00:20:16;5.10;;;3.97;;
6251;SDS011;3159;52.414;9.784;2023-12-14T00:22:42;4.63;;;3.60;;
6251;SDS011;3159;52.414;9.784;2023-12-14T00:25:11;4.20;;;3.80;;
6251;SDS011;3159;52.414;9.784;2023-12-14T00:27:38;4.97;;;3.70;;
6251;SDS011;3159;52.414;9.784;2023-12-14T00:30:05;4.03;;;3.30;;
6251;SDS011;3159;52.414;9.784;2023-12-14T00:32:32;3.70;;;3.30;;
6251;SDS011;3159;52.414;9.784;2023-12-14T00:34:59;3.70;;;3.13;;
6251;SDS011;3159;52.414;9.784;2023-12-14T00:37:26;4.10;;;3.70;;
6251;SDS011;3159;52.414;9.784;2023-12-14T00:39:53;4.83;;;3.93;;
6251;SDS011;3159;52.414;9.784;2023-12-14T00:42:22;5.20;;;3.70;;
6251;SDS011;3159;52.414;9.784;2023-12-14T00:44:49;5.13;;;4.03;;
6251;SDS011;3159;52.414;9.784;2023-12-14T00:47:16;3.80;;;3.23;;
6251;SDS011;3159;52.414;9.784;2023-12-14T00:49:42;3.90;;;3.30;;
6251;SDS011;3159;52.414;9.784;2023-12-14T00:52:09;4.83;;;3.80;;
6251;SDS011;3159;52.414;9.784;2023-12-14T00:54:36;3.57;;;3.07;;
6251;SDS011;3159;52.414;9.784;2023-12-14T00:57:03;4.20;;;3.33;;
6251;SDS011;3159;52.414;9.784;2023-12-14T00:59:31;4.47;;;3.30;;
6251;SDS011;3159;52.414;9.784;2023-12-14T01:01:58;3.57;;;3.03;;
6251;SDS011;3159;52.414;9.784;2023-12-14T01:04:25;4.23;;;3.33;;
6251;SDS011;3159;52.414;9.784;2023-12-14T01:06:52;4.37;;;3.53;;
6251;SDS011;3159;52.414;9.784;2023-12-14T01:09:19;4.47;;;3.13;;
6251;SDS011;3159;52.414;9.784;2023-12-14T01:11:45;3.63;;;3.00;;
6251;SDS011;3159;52.414;9.784;2023-12-14T01:14:12;3.53;;;2.93;;
6251;SDS011;3159;52.414;9.784;2023-12-14T01:16:40;4.20;;;3.50;;
6251;SDS011;3159;52.414;9.784;2023-12-14T01:19:07;4.27;;;3.53;;
6251;SDS011;3159;52.414;9.784;2023-12-14T01:21:34;3.80;;;3.40;;
6251;SDS011;3159;52.414;9.784;2023-12-14T01:24:01;4.17;;;3.37;;
6251;SDS011;3159;52.414;9.784;2023-12-14T01:26:28;5.23;;;4.23;;
6251;SDS011;3159;52.414;9.784;2023-12-14T01:28:55;5.27;;;4.20;;
6251;SDS011;3159;52.414;9.784;2023-12-14T01:31:21;6.30;;;4.30;;
6251;SDS011;3159;52.414;9.784;2023-12-14T01:33:50;4.43;;;4.03;;
6251;SDS011;3159;52.414;9.784;2023-12-14T01:36:20;4.63;;;3.93;;
6251;SDS011;3159;52.414;9.784;2023-12-14T01:38:47;4.03;;;3.50;;
6251;SDS011;3159;52.414;9.784;2023-12-14T01:41:14;4.60;;;3.63;;
6251;SDS011;3159;52.414;9.784;2023-12-14T01:43:41;3.70;;;3.30;;
6251;SDS011;3159;52.414;9.784;2023-12-14T01:46:08;4.33;;;3.70;;
6251;SDS011;3159;52.414;9.784;2023-12-14T01:48:35;5.60;;;3.80;;
6251;SDS011;3159;52.414;9.784;2023-12-14T01:51:04;4.20;;;3.80;;
6251;SDS011;3159;52.414;9.784;2023-12-14T01:53:31;4.37;;;3.83;;
6251;SDS011;3159;52.414;9.784;2023-12-14T01:55:57;5.53;;;4.27;;
6251;SDS011;3159;52.414;9.784;2023-12-14T01:58:24;6.47;;;4.57;;
6251;SDS011;3159;52.414;9.784;2023-12-14T02:00:52;7.07;;;4.23;;
6251;SDS011;3159;52.414;9.784;2023-12-14T02:03:24;5.37;;;4.37;;
6251;SDS011;3159;52.414;9.784;2023-12-14T02:05:51;5.47;;;4.47;;
6251;SDS011;3159;52.414;9.784;2023-12-14T02:08:19;5.10;;;4.20;;
6251;SDS011;3159;52.414;9.784;2023-12-14T02:10:46;4.13;;;3.73;;
6251;SDS011;3159;52.414;9.784;2023-12-14T02:13:13;5.00;;;4.27;;
6251;SDS011;3159;52.414;9.784;2023-12-14T02:15:40;5.20;;;4.20;;
6251;SDS011;3159;52.414;9.784;2023-12-14T02:18:07;5.57;;;4.13;;
6251;SDS011;3159;52.414;9.784;2023-12-14T02:20:34;5.57;;;3.80;;
6251;SDS011;3159;52.414;9.784;2023-12-14T02:23:02;4.70;;;4.00;;
6251;SDS011;3159;52.414;9.784;2023-12-14T02:25:29;5.70;;;4.03;;
6251;SDS011;3159;52.414;9.784;2023-12-14T02:27:56;4.57;;;4.13;;
6251;SDS011;3159;52.414;9.784;2023-12-14T02:30:23;4.43;;;3.97;;
6251;SDS011;3159;52.414;9.784;2023-12-14T02:32:50;5.83;;;3.90;;
6251;SDS011;3159;52.414;9.784;2023-12-14T02:35:16;5.20;;;4.30;;
6251;SDS011;3159;52.414;9.784;2023-12-14T02:37:44;3.97;;;3.47;;
6251;SDS011;3159;52.414;9.784;2023-12-14T02:40:12;4.63;;;3.83;;
6251;SDS011;3159;52.414;9.784;2023-12-14T02:42:39;5.33;;;4.10;;
6251;SDS011;3159;52.414;9.784;2023-12-14T02:45:07;4.87;;;3.63;;
6251;SDS011;3159;52.414;9.784;2023-12-14T02:47:34;4.67;;;3.50;;
6251;SDS011;3159;52.414;9.784;2023-12-14T02:50:01;4.33;;;3.70;;
6251;SDS011;3159;52.414;9.784;2023-12-14T02:52:28;4.30;;;3.50;;
6251;SDS011;3159;52.414;9.784;2023-12-14T02:54:55;4.30;;;3.43;;
6251;SDS011;3159;52.414;9.784;2023-12-14T02:57:23;5.43;;;3.13;;
6251;SDS011;3159;52.414;9.784;2023-12-14T02:59:50;4.23;;;3.47;;
6251;SDS011;3159;52.414;9.784;2023-12-14T03:02:17;4.50;;;3.80;;
6251;SDS011;3159;52.414;9.784;2023-12-14T03:04:44;5.43;;;3.97;;
6251;SDS011;3159;52.414;9.784;2023-12-14T03:07:10;5.13;;;3.50;;
6251;SDS011;3159;52.414;9.784;2023-12-14T03:09:39;4.70;;;3.70;;
6251;SDS011;3159;52.414;9.784;2023-12-14T03:12:08;5.70;;;3.97;;
6251;SDS011;3159;52.414;9.784;2023-12-14T03:14:36;3.90;;;3.50;;
6251;SDS011;3159;52.414;9.784;2023-12-14T03:17:03;4.37;;;3.40;;
6251;SDS011;3159;52.414;9.784;2023-12-14T03:19:30;4.10;;;3.50;;
6251;SDS011;3159;52.414;9.784;2023-12-14T03:21:57;3.20;;;2.90;;
6251;SDS011;3159;52.414;9.784;2023-12-14T03:24:24;4.27;;;3.27;;
6251;SDS011;3159;52.414;9.784;2023-12-14T03:26:50;4.00;;;3.60;;
6251;SDS011;3159;52.414;9.784;2023-12-14T03:29:18;3.50;;;3.20;;
6251;SDS011;3159;52.414;9.784;2023-12-14T03:31:47;4.40;;;3.13;;
6251;SDS011;3159;52.414;9.784;2023-12-14T03:34:14;3.47;;;3.17;;
6251;SDS011;3159;52.414;9.784;2023-12-14T03:36:41;4.50;;;3.23;;
6251;SDS011;3159;52.414;9.784;2023-12-14T03:39:08;3.20;;;2.90;;
6251;SDS011;3159;52.414;9.784;2023-12-14T03:41:35;4.53;;;3.10;;
6251;SDS011;3159;52.414;9.784;2023-12-14T03:44:02;3.27;;;2.97;;
6251;SDS011;3159;52.414;9.784;2023-12-14T03:46:29;3.33;;;3.03;;
6251;SDS011;3159;52.414;9.784;2023-12-14T03:48:57;3.10;;;2.80;;
6251;SDS011;3159;52.414;9.784;2023-12-14T03:51:24;4.27;;;3.03;;
6251;SDS011;3159;52.414;9.784;2023-12-14T03:53:51;5.27;;;3.37;;
6251;SDS011;3159;52.414;9.784;2023-12-14T03:56:17;3.93;;;3.17;;
6251;SDS011;3159;52.414;9.784;2023-12-14T03:58:44;2.97;;;2.67;;
6251;SDS011;3159;52.414;9.784;2023-12-14T04:01:15;3.80;;;3.23;;
6251;SDS011;3159;52.414;9.784;2023-12-14T04:03:43;4.73;;;2.90;;
6251;SDS011;3159;52.414;9.784;2023-12-14T04:06:12;2.97;;;2.70;;
6251;SDS011;3159;52.414;9.784;2023-12-14T04:08:39;3.83;;;3.00;;
6251;SDS011;3159;52.414;9.784;2023-12-14T04:11:06;4.50;;;3.20;;
6251;SDS011;3159;52.414;9.784;2023-12-14T04:13:33;3.93;;;2.70;;
6251;SDS011;3159;52.414;9.784;2023-12-14T04:16:01;4.63;;;2.87;;
6251;SDS011;3159;52.414;9.784;2023-12-14T04:18:28;3.87;;;2.97;;
6251;SDS011;3159;52.414;9.784;2023-12-14T04:20:55;4.60;;;3.33;;
6251;SDS011;3159;52.414;9.784;2023-12-14T04:23:24;4.03;;;3.10;;
6251;SDS011;3159;52.414;9.784;2023-12-14T04:25:52;3.73;;;3.33;;
6251;SDS011;3159;52.414;9.784;2023-12-14T04:28:18;3.67;;;3.07;;
6251;SDS011;3159;52.414;9.784;2023-12-14T04:30:45;3.90;;;3.03;;
6251;SDS011;3159;52.414;9.784;2023-12-14T04:33:12;4.17;;;2.73;;
6251;SDS011;3159;52.414;9.784;2023-12-14T04:35:40;3.50;;;3.20;;
6251;SDS011;3159;52.414;9.784;2023-12-14T04:38:06;3.77;;;3.30;;
6251;SDS011;3159;52.414;9.784;2023-12-14T04:40:35;4.27;;;3.27;;
6251;SDS011;3159;52.414;9.784;2023-12-14T04:43:01;8.57;;;3.70;;
6251;SDS011;3159;52.414;9.784;2023-12-14T04:45:28;3.63;;;3.20;;
6251;SDS011;3159;52.414;9.784;2023-12-14T04:47:55;3.90;;;3.30;;
6251;SDS011;3159;52.414;9.784;2023-12-14T04:50:22;4.60;;;3.70;;
6251;SDS011;3159;52.414;9.784;2023-12-14T04:52:49;3.83;;;3.43;;
6251;SDS011;3159;52.414;9.784;2023-12-14T04:55:16;4.23;;;3.50;;
6251;SDS011;3159;52.414;9.784;2023-12-14T04:57:44;3.87;;;3.20;;
6251;SDS011;3159;52.414;9.784;2023-12-14T05:00:14;4.43;;;3.80;;
6251;SDS011;3159;52.414;9.784;2023-12-14T05:02:41;4.53;;;3.60;;
6251;SDS011;3159;52.414;9.784;2023-12-14T05:05:12;4.77;;;3.40;;
6251;SDS011;3159;52.414;9.784;2023-12-14T05:07:39;5.17;;;3.67;;
6251;SDS011;3159;52.414;9.784;2023-12-14T05:10:07;4.43;;;3.93;;
6251;SDS011;3159;52.414;9.784;2023-12-14T05:12:34;4.80;;;3.87;;
6251;SDS011;3159;52.414;9.784;2023-12-14T05:15:03;4.53;;;3.77;;
6251;SDS011;3159;52.414;9.784;2023-12-14T05:17:30;3.80;;;3.23;;
6251;SDS011;3159;52.414;9.784;2023-12-14T05:19:57;4.67;;;3.67;;
6251;SDS011;3159;52.414;9.784;2023-12-14T05:22:24;4.97;;;3.73;;
6251;SDS011;3159;52.414;9.784;2023-12-14T05:24:51;4.23;;;3.83;;
6251;SDS011;3159;52.414;9.784;2023-12-14T05:27:18;3.90;;;3.60;;
6251;SDS011;3159;52.414;9.784;2023-12-14T05:29:45;3.30;;;2.97;;
6251;SDS011;3159;52.414;9.784;2023-12-14T05:32:13;3.67;;;2.97;;
6251;SDS011;3159;52.414;9.784;2023-12-14T05:34:40;3.83;;;3.43;;
6251;SDS011;3159;52.414;9.784;2023-12-14T05:37:07;4.07;;;3.20;;
6251;SDS011;3159;52.414;9.784;2023-12-14T05:39:34;3.33;;;3.03;;
6251;SDS011;3159;52.414;9.784;2023-12-14T05:42:01;3.07;;;2.77;;
6251;SDS011;3159;52.414;9.784;2023-12-14T05:44:27;4.67;;;3.00;;
6251;SDS011;3159;52.414;9.784;2023-12-14T05:46:54;3.50;;;3.20;;
6251;SDS011;3159;52.414;9.784;2023-12-14T05:49:22;3.43;;;3.10;;
6251;SDS011;3159;52.414;9.784;2023-12-14T05:51:49;3.10;;;2.80;;
6251;SDS011;3159;52.414;9.784;2023-12-14T05:54:16;3.93;;;3.53;;
6251;SDS011;3159;52.414;9.784;2023-12-14T05:56:43;4.33;;;3.20;;
6251;SDS011;3159;52.414;9.784;2023-12-14T05:59:10;3.57;;;3.27;;
6251;SDS011;3159;52.414;9.784;2023-12-14T06:01:36;3.53;;;3.03;;
6251;SDS011;3159;52.414;9.784;2023-12-14T06:04:03;3.03;;;2.70;;
6251;SDS011;3159;52.414;9.784;2023-12-14T06:06:31;3.33;;;2.83;;
6251;SDS011;3159;52.414;9.784;2023-12-14T06:08:58;3.87;;;3.40;;
6251;SDS011;3159;52.414;9.784;2023-12-14T06:11:25;3.43;;;3.13;;
6251;SDS011;3159;52.414;9.784;2023-12-14T06:13:52;4.07;;;3.30;;
6251;SDS011;3159;52.414;9.784;2023-12-14T06:16:18;3.37;;;3.07;;
6251;SDS011;3159;52.414;9.784;2023-12-14T06:18:45;3.83;;;2.97;;
6251;SDS011;3159;52.414;9.784;2023-12-14T06:21:12;5.63;;;3.47;;
6251;SDS011;3159;52.414;9.784;2023-12-14T06:23:40;4.00;;;2.90;;
6251;SDS011;3159;52.414;9.784;2023-12-14T06:26:07;3.60;;;2.87;;
6251;SDS011;3159;52.414;9.784;2023-12-14T06:28:34;4.63;;;3.23;;
6251;SDS011;3159;52.414;9.784;2023-12-14T06:31:01;4.90;;;3.60;;
6251;SDS011;3159;52.414;9.784;2023-12-14T06:33:27;4.20;;;2.57;;
6251;SDS011;3159;52.414;9.784;2023-12-14T06:35:54;3.13;;;2.87;;
6251;SDS011;3159;52.414;9.784;2023-12-14T06:38:21;4.93;;;3.63;;
6251;SDS011;3159;52.414;9.784;2023-12-14T06:40:49;5.25;;;4.18;;
6251;SDS011;3159;52.414;9.784;2023-12-14T06:43:16;3.63;;;3.33;;
6251;SDS011;3159;52.414;9.784;2023-12-14T06:45:43;3.57;;;3.17;;
6251;SDS011;3159;52.414;9.784;2023-12-14T06:48:10;3.73;;;3.43;;
6251;SDS011;3159;52.414;9.784;2023-12-14T06:50:36;3.57;;;3.20;;
6251;SDS011;3159;52.414;9.784;2023-12-14T06:53:04;3.53;;;3.17;;
6251;SDS011;3159;52.414;9.784;2023-12-14T06:55:30;4.87;;;3.60;;
6251;SDS011;3159;52.414;9.784;2023-12-14T06:57:59;3.67;;;3.13;;
6251;SDS011;3159;52.414;9.784;2023-12-14T07:00:25;3.90;;;3.50;;
6251;SDS011;3159;52.414;9.784;2023-12-14T07:02:52;3.67;;;3.20;;
6251;SDS011;3159;52.414;9.784;2023-12-14T07:05:19;4.37;;;3.67;;
6251;SDS011;3159;52.414;9.784;2023-12-14T07:07:46;4.00;;;3.50;;
6251;SDS011;3159;52.414;9.784;2023-12-14T07:10:13;5.50;;;3.37;;
6251;SDS011;3159;52.414;9.784;2023-12-14T07:12:40;5.00;;;3.60;;
6251;SDS011;3159;52.414;9.784;2023-12-14T07:15:09;4.13;;;3.67;;
6251;SDS011;3159;52.414;9.784;2023-12-14T07:17:35;4.03;;;3.50;;
6251;SDS011;3159;52.414;9.784;2023-12-14T07:20:02;3.80;;;3.37;;
6251;SDS011;3159;52.414;9.784;2023-12-14T07:22:31;4.57;;;3.57;;
6251;SDS011;3159;52.414;9.784;2023-12-14T07:24:58;4.40;;;3.23;;
6251;SDS011;3159;52.414;9.784;2023-12-14T07:27:24;4.07;;;3.33;;
6251;SDS011;3159;52.414;9.784;2023-12-14T07:29:51;3.73;;;3.33;;
6251;SDS011;3159;52.414;9.784;2023-12-14T07:32:19;4.77;;;3.63;;
6251;SDS011;3159;52.414;9.784;2023-12-14T07:34:46;3.63;;;3.20;;
6251;SDS011;3159;52.414;9.784;2023-12-14T07:37:13;3.70;;;3.17;;
6251;SDS011;3159;52.414;9.784;2023-12-14T07:39:40;4.37;;;2.83;;
6251;SDS011;3159;52.414;9.784;2023-12-14T07:42:07;3.03;;;2.53;;
6251;SDS011;3159;52.414;9.784;2023-12-14T07:44:34;3.70;;;2.60;;
6251;SDS011;3159;52.414;9.784;2023-12-14T07:47:00;4.33;;;2.93;;
6251;SDS011;3159;52.414;9.784;2023-12-14T07:49:29;3.30;;;2.87;;
6251;SDS011;3159;52.414;9.784;2023-12-14T07:51:55;3.97;;;3.00;;
6251;SDS011;3159;52.414;9.784;2023-12-14T07:54:22;3.37;;;2.90;;
6251;SDS011;3159;52.414;9.784;2023-12-14T07:56:51;2.90;;;2.53;;
6251;SDS011;3159;52.414;9.784;2023-12-14T07:59:18;3.00;;;2.70;;
6251;SDS011;3159;52.414;9.784;2023-12-14T08:01:45;4.23;;;3.20;;
6251;SDS011;3159;52.414;9.784;2023-12-14T08:04:12;3.70;;;2.80;;
6251;SDS011;3159;52.414;9.784;2023-12-14T08:06:42;4.67;;;3.13;;
6251;SDS011;3159;52.414;9.784;2023-12-14T08:09:09;2.93;;;2.67;;
6251;SDS011;3159;52.414;9.784;2023-12-14T08:11:35;3.73;;;3.03;;
6251;SDS011;3159;52.414;9.784;2023-12-14T08:14:02;4.60;;;3.03;;
6251;SDS011;3159;52.414;9.784;2023-12-14T08:16:29;3.50;;;3.07;;
6251;SDS011;3159;52.414;9.784;2023-12-14T08:18:56;3.97;;;2.63;;
6251;SDS011;3159;52.414;9.784;2023-12-14T08:21:23;3.30;;;3.00;;
6251;SDS011;3159;52.414;9.784;2023-12-14T08:23:51;3.07;;;2.70;;
6251;SDS011;3159;52.414;9.784;2023-12-14T08:26:18;5.43;;;3.00;;
6251;SDS011;3159;52.414;9.784;2023-12-14T08:28:45;3.77;;;3.00;;
6251;SDS011;3159;52.414;9.784;2023-12-14T08:31:12;3.83;;;3.03;;
6251;SDS011;3159;52.414;9.784;2023-12-14T08:33:40;4.00;;;2.90;;
6251;SDS011;3159;52.414;9.784;2023-12-14T08:36:07;3.70;;;3.30;;
6251;SDS011;3159;52.414;9.784;2023-12-14T08:38:34;4.67;;;3.23;;
6251;SDS011;3159;52.414;9.784;2023-12-14T08:41:03;4.10;;;3.37;;
6251;SDS011;3159;52.414;9.784;2023-12-14T08:43:29;5.33;;;3.30;;
6251;SDS011;3159;52.414;9.784;2023-12-14T08:45:56;4.97;;;3.20;;
6251;SDS011;3159;52.414;9.784;2023-12-14T08:48:23;3.70;;;3.03;;
6251;SDS011;3159;52.414;9.784;2023-12-14T08:50:50;3.67;;;3.00;;
6251;SDS011;3159;52.414;9.784;2023-12-14T08:53:19;3.30;;;2.73;;
6251;SDS011;3159;52.414;9.784;2023-12-14T08:55:46;3.53;;;2.93;;
6251;SDS011;3159;52.414;9.784;2023-12-14T08:58:14;3.73;;;2.93;;
6251;SDS011;3159;52.414;9.784;2023-12-14T09:00:41;4.67;;;2.77;;
6251;SDS011;3159;52.414;9.784;2023-12-14T09:03:08;3.90;;;3.13;;
6251;SDS011;3159;52.414;9.784;2023-12-14T09:05:35;3.37;;;2.97;;
6251;SDS011;3159;52.414;9.784;2023-12-14T09:08:02;3.87;;;2.97;;
6251;SDS011;3159;52.414;9.784;2023-12-14T09:10:29;3.47;;;2.97;;
6251;SDS011;3159;52.414;9.784;2023-12-14T09:12:55;3.40;;;2.73;;
6251;SDS011;3159;52.414;9.784;2023-12-14T09:15:23;3.43;;;3.13;;
6251;SDS011;3159;52.414;9.784;2023-12-14T09:17:50;3.13;;;2.70;;
6251;SDS011;3159;52.414;9.784;2023-12-14T09:20:18;3.17;;;2.70;;
6251;SDS011;3159;52.414;9.784;2023-12-14T09:22:45;3.37;;;2.70;;
6251;SDS011;3159;52.414;9.784;2023-12-14T09:25:11;3.40;;;2.90;;
6251;SDS011;3159;52.414;9.784;2023-12-14T09:27:38;3.10;;;2.47;;
6251;SDS011;3159;52.414;9.784;2023-12-14T09:30:06;3.90;;;2.77;;
6251;SDS011;3159;52.414;9.784;2023-12-14T09:32:35;3.30;;;2.70;;
6251;SDS011;3159;52.414;9.784;2023-12-14T09:35:02;3.10;;;2.80;;
6251;SDS011;3159;52.414;9.784;2023-12-14T09:37:29;3.83;;;2.70;;
6251;SDS011;3159;52.414;9.784;2023-12-14T09:39:56;2.63;;;2.40;;
6251;SDS011;3159;52.414;9.784;2023-12-14T09:42:22;2.63;;;2.43;;
6251;SDS011;3159;52.414;9.784;2023-12-14T09:44:49;3.50;;;2.37;;
6251;SDS011;3159;52.414;9.784;2023-12-14T09:47:17;2.53;;;2.23;;
6251;SDS011;3159;52.414;9.784;2023-12-14T09:49:45;2.90;;;2.60;;
6251;SDS011;3159;52.414;9.784;2023-12-14T09:52:13;2.30;;;2.10;;
6251;SDS011;3159;52.414;9.784;2023-12-14T09:54:40;2.80;;;2.47;;
6251;SDS011;3159;52.414;9.784;2023-12-14T09:57:07;3.73;;;2.97;;
6251;SDS011;3159;52.414;9.784;2023-12-14T09:59:34;3.67;;;2.90;;
6251;SDS011;3159;52.414;9.784;2023-12-14T10:02:08;2.77;;;2.50;;
6251;SDS011;3159;52.414;9.784;2023-12-14T10:04:36;3.50;;;2.80;;
6251;SDS011;3159;52.414;9.784;2023-12-14T10:07:04;3.07;;;2.80;;
6251;SDS011;3159;52.414;9.784;2023-12-14T10:09:33;3.63;;;3.33;;
6251;SDS011;3159;52.414;9.784;2023-12-14T10:12:03;4.93;;;3.10;;
6251;SDS011;3159;52.414;9.784;2023-12-14T10:14:31;3.93;;;3.43;;
6251;SDS011;3159;52.414;9.784;2023-12-14T10:16:59;4.77;;;3.13;;
6251;SDS011;3159;52.414;9.784;2023-12-14T10:19:42;4.63;;;3.30;;
6251;SDS011;3159;52.414;9.784;2023-12-14T10:22:10;4.30;;;3.57;;
6251;SDS011;3159;52.414;9.784;2023-12-14T10:24:38;5.17;;;3.57;;
6251;SDS011;3159;52.414;9.784;2023-12-14T10:27:05;3.57;;;2.90;;
6251;SDS011;3159;52.414;9.784;2023-12-14T10:29:33;4.57;;;3.77;;
6251;SDS011;3159;52.414;9.784;2023-12-14T10:32:00;3.87;;;3.47;;
6251;SDS011;3159;52.414;9.784;2023-12-14T10:34:31;5.47;;;3.97;;
6251;SDS011;3159;52.414;9.784;2023-12-14T10:36:58;4.40;;;3.47;;
6251;SDS011;3159;52.414;9.784;2023-12-14T10:39:27;4.97;;;3.40;;
6251;SDS011;3159;52.414;9.784;2023-12-14T10:41:55;4.83;;;3.10;;
6251;SDS011;3159;52.414;9.784;2023-12-14T10:44:25;2.90;;;2.50;;
6251;SDS011;3159;52.414;9.784;2023-12-14T10:46:53;3.93;;;3.37;;
6251;SDS011;3159;52.414;9.784;2023-12-14T10:49:23;3.67;;;3.20;;
6251;SDS011;3159;52.414;9.784;2023-12-14T10:51:50;3.10;;;2.70;;
6251;SDS011;3159;52.414;9.784;2023-12-14T10:54:19;5.20;;;3.37;;
6251;SDS011;3159;52.414;9.784;2023-12-14T10:56:48;3.50;;;3.17;;
6251;SDS011;3159;52.414;9.784;2023-12-14T10:59:15;3.63;;;2.90;;
6251;SDS011;3159;52.414;9.784;2023-12-14T11:01:42;4.07;;;3.10;;
6251;SDS011;3159;52.414;9.784;2023-12-14T11:04:10;4.93;;;3.60;;
6251;SDS011;3159;52.414;9.784;2023-12-14T11:06:39;4.53;;;3.57;;
6251;SDS011;3159;52.414;9.784;2023-12-14T11:09:12;3.77;;;3.20;;
6251;SDS011;3159;52.414;9.784;2023-12-14T11:11:40;3.90;;;3.33;;
6251;SDS011;3159;52.414;9.784;2023-12-14T11:14:11;4.23;;;3.10;;
6251;SDS011;3159;52.414;9.784;2023-12-14T11:16:39;4.17;;;3.53;;
6251;SDS011;3159;52.414;9.784;2023-12-14T11:19:29;3.60;;;3.27;;
6251;SDS011;3159;52.414;9.784;2023-12-14T11:22:09;3.93;;;3.27;;
6251;SDS011;3159;52.414;9.784;2023-12-14T11:24:38;5.57;;;3.23;;
6251;SDS011;3159;52.414;9.784;2023-12-14T11:27:08;4.93;;;3.03;;
6251;SDS011;3159;52.414;9.784;2023-12-14T11:29:37;4.87;;;4.17;;
6251;SDS011;3159;52.414;9.784;2023-12-14T11:32:05;3.83;;;3.40;;
6251;SDS011;3159;52.414;9.784;2023-12-14T11:34:32;4.03;;;3.63;;
6251;SDS011;3159;52.414;9.784;2023-12-14T11:36:59;8.10;;;4.17;;
6251;SDS011;3159;52.414;9.784;2023-12-14T11:39:29;8.30;;;4.27;;
6251;SDS011;3159;52.414;9.784;2023-12-14T11:41:59;5.47;;;4.30;;
6251;SDS011;3159;52.414;9.784;2023-12-14T11:44:27;5.77;;;4.23;;
6251;SDS011;3159;52.414;9.784;2023-12-14T11:46:55;5.77;;;4.30;;
6251;SDS011;3159;52.414;9.784;2023-12-14T11:49:23;6.33;;;3.93;;
6251;SDS011;3159;52.414;9.784;2023-12-14T11:51:51;4.27;;;3.47;;
6251;SDS011;3159;52.414;9.784;2023-12-14T11:54:18;4.70;;;3.70;;
6251;SDS011;3159;52.414;9.784;2023-12-14T11:56:46;3.63;;;3.00;;
6251;SDS011;3159;52.414;9.784;2023-12-14T11:59:14;5.10;;;3.87;;
6251;SDS011;3159;52.414;9.784;2023-12-14T12:01:53;5.40;;;3.73;;
6251;SDS011;3159;52.414;9.784;2023-12-14T12:04:23;5.10;;;3.90;;
6251;SDS011;3159;52.414;9.784;2023-12-14T12:06:58;5.37;;;3.87;;
6251;SDS011;3159;52.414;9.784;2023-12-14T12:09:32;4.73;;;3.57;;
6251;SDS011;3159;52.414;9.784;2023-12-14T12:12:07;5.40;;;3.70;;
6251;SDS011;3159;52.414;9.784;2023-12-14T12:14:34;5.47;;;3.63;;
6251;SDS011;3159;52.414;9.784;2023-12-14T12:17:03;4.50;;;3.83;;
6251;SDS011;3159;52.414;9.784;2023-12-14T12:19:31;3.90;;;3.50;;
6251;SDS011;3159;52.414;9.784;2023-12-14T12:21:59;4.10;;;3.60;;
6251;SDS011;3159;52.414;9.784;2023-12-14T12:24:26;6.63;;;3.63;;
6251;SDS011;3159;52.414;9.784;2023-12-14T12:26:53;4.80;;;3.30;;
6251;SDS011;3159;52.414;9.784;2023-12-14T12:29:20;6.23;;;3.73;;
6251;SDS011;3159;52.414;9.784;2023-12-14T12:31:47;5.70;;;3.30;;
6251;SDS011;3159;52.414;9.784;2023-12-14T12:34:15;5.60;;;3.77;;
6251;SDS011;3159;52.414;9.784;2023-12-14T12:36:42;5.20;;;3.90;;
6251;SDS011;3159;52.414;9.784;2023-12-14T12:39:09;6.93;;;4.00;;
6251;SDS011;3159;52.414;9.784;2023-12-14T12:41:36;6.03;;;4.60;;
6251;SDS011;3159;52.414;9.784;2023-12-14T12:44:03;4.37;;;3.57;;
6251;SDS011;3159;52.414;9.784;2023-12-14T12:46:32;4.90;;;4.03;;
6251;SDS011;3159;52.414;9.784;2023-12-14T12:49:00;5.03;;;3.77;;
6251;SDS011;3159;52.414;9.784;2023-12-14T12:51:28;5.43;;;4.30;;
6251;SDS011;3159;52.414;9.784;2023-12-14T12:53:56;8.07;;;4.30;;
6251;SDS011;3159;52.414;9.784;2023-12-14T12:56:24;4.03;;;3.33;;
6251;SDS011;3159;52.414;9.784;2023-12-14T12:58:52;9.53;;;6.40;;
6251;SDS011;3159;52.414;9.784;2023-12-14T13:01:19;12.23;;;6.90;;
6251;SDS011;3159;52.414;9.784;2023-12-14T13:03:47;7.33;;;5.23;;
6251;SDS011;3159;52.414;9.784;2023-12-14T13:06:17;8.80;;;5.10;;
6251;SDS011;3159;52.414;9.784;2023-12-14T13:08:45;7.23;;;4.50;;
6251;SDS011;3159;52.414;9.784;2023-12-14T13:11:12;6.00;;;4.00;;
6251;SDS011;3159;52.414;9.784;2023-12-14T13:13:39;8.30;;;4.47;;
6251;SDS011;3159;52.414;9.784;2023-12-14T13:16:06;6.03;;;4.73;;
6251;SDS011;3159;52.414;9.784;2023-12-14T13:18:33;6.90;;;5.23;;
6251;SDS011;3159;52.414;9.784;2023-12-14T13:21:00;9.47;;;5.80;;
6251;SDS011;3159;52.414;9.784;2023-12-14T13:23:27;6.23;;;4.77;;
6251;SDS011;3159;52.414;9.784;2023-12-14T13:25:55;7.70;;;5.03;;
6251;SDS011;3159;52.414;9.784;2023-12-14T13:28:22;8.57;;;4.47;;
6251;SDS011;3159;52.414;9.784;2023-12-14T13:30:49;7.83;;;6.17;;
6251;SDS011;3159;52.414;9.784;2023-12-14T13:33:16;7.20;;;5.07;;
6251;SDS011;3159;52.414;9.784;2023-12-14T13:35:43;7.07;;;5.40;;
6251;SDS011;3159;52.414;9.784;2023-12-14T13:38:10;8.03;;;5.73;;
6251;SDS011;3159;52.414;9.784;2023-12-14T13:40:37;7.33;;;4.97;;
6251;SDS011;3159;52.414;9.784;2023-12-14T13:43:05;6.87;;;4.97;;
6251;SDS011;3159;52.414;9.784;2023-12-14T13:45:35;9.13;;;5.10;;
6251;SDS011;3159;52.414;9.784;2023-12-14T13:48:02;7.47;;;5.27;;
6251;SDS011;3159;52.414;9.784;2023-12-14T13:50:29;9.90;;;5.73;;
6251;SDS011;3159;52.414;9.784;2023-12-14T13:52:56;7.70;;;5.73;;
6251;SDS011;3159;52.414;9.784;2023-12-14T13:55:23;6.83;;;5.07;;
6251;SDS011;3159;52.414;9.784;2023-12-14T13:57:50;6.60;;;4.43;;
6251;SDS011;3159;52.414;9.784;2023-12-14T14:00:18;7.53;;;5.27;;
6251;SDS011;3159;52.414;9.784;2023-12-14T14:02:46;5.30;;;4.40;;
6251;SDS011;3159;52.414;9.784;2023-12-14T14:05:13;7.70;;;4.77;;
6251;SDS011;3159;52.414;9.784;2023-12-14T14:07:40;7.70;;;4.93;;
6251;SDS011;3159;52.414;9.784;2023-12-14T14:10:07;6.10;;;4.50;;
6251;SDS011;3159;52.414;9.784;2023-12-14T14:12:35;8.30;;;5.50;;
6251;SDS011;3159;52.414;9.784;2023-12-14T14:15:02;10.17;;;6.20;;
6251;SDS011;3159;52.414;9.784;2023-12-14T14:17:30;7.97;;;5.83;;
6251;SDS011;3159;52.414;9.784;2023-12-14T14:19:57;7.07;;;5.37;;
6251;SDS011;3159;52.414;9.784;2023-12-14T14:22:24;9.80;;;6.70;;
6251;SDS011;3159;52.414;9.784;2023-12-14T14:24:51;11.40;;;6.20;;
6251;SDS011;3159;52.414;9.784;2023-12-14T14:27:18;6.27;;;5.07;;
6251;SDS011;3159;52.414;9.784;2023-12-14T14:29:44;7.23;;;5.20;;
6251;SDS011;3159;52.414;9.784;2023-12-14T14:32:11;7.33;;;5.40;;
6251;SDS011;3159;52.414;9.784;2023-12-14T14:34:40;7.87;;;5.37;;
6251;SDS011;3159;52.414;9.784;2023-12-14T14:37:07;7.47;;;5.57;;
6251;SDS011;3159;52.414;9.784;2023-12-14T14:39:34;7.30;;;5.67;;
6251;SDS011;3159;52.414;9.784;2023-12-14T14:42:03;9.97;;;6.23;;
6251;SDS011;3159;52.414;9.784;2023-12-14T14:44:30;7.47;;;5.83;;
6251;SDS011;3159;52.414;9.784;2023-12-14T14:46:56;8.70;;;7.17;;
6251;SDS011;3159;52.414;9.784;2023-12-14T14:49:24;10.13;;;8.90;;
6251;SDS011;3159;52.414;9.784;2023-12-14T14:51:52;10.73;;;8.17;;
6251;SDS011;3159;52.414;9.784;2023-12-14T14:54:19;9.57;;;7.20;;
6251;SDS011;3159;52.414;9.784;2023-12-14T14:56:46;11.10;;;7.20;;
6251;SDS011;3159;52.414;9.784;2023-12-14T14:59:13;10.83;;;6.97;;
6251;SDS011;3159;52.414;9.784;2023-12-14T15:01:40;9.53;;;6.37;;
6251;SDS011;3159;52.414;9.784;2023-12-14T15:04:07;10.00;;;6.50;;
6251;SDS011;3159;52.414;9.784;2023-12-14T15:06:35;10.03;;;6.70;;
6251;SDS011;3159;52.414;9.784;2023-12-14T15:09:04;11.27;;;7.77;;
6251;SDS011;3159;52.414;9.784;2023-12-14T15:11:32;9.00;;;7.20;;
6251;SDS011;3159;52.414;9.784;2023-12-14T15:13:59;8.60;;;7.20;;
6251;SDS011;3159;52.414;9.784;2023-12-14T15:16:26;8.30;;;6.63;;